Potash, Louisiana
Current Conditions -  °F | °C
As of 8:55 PM on Monday 22 Dec 2014 (Local Time) from KNBG Reporting Station
Haze Haze  
Wind Chill: 69°   Ceiling: 2300
Heat Index: 69°   Visibility: 5mi
Dew Point: 67°   Wind: 12mph
Humidity: 93%   Direction: 200°SSW
Pressure: 29.74"   Gusts: NA
Location:  29.4927°N, 89.8165°W
Report Text: KNBG 230255Z 20010KT 5SM BR SCT010 BKN023 OVC039 21/19 A2974 RMK AO2 SLP070 T02060194 51004 $
Loading
Personal Weather Stations






























Interactive Weather Map New forecast layout! Learn more

10-Day Weather Forecast

Advertisements
Track Severe Weather on mobile